Time;durP1;ratioP1;P1;durP2;ratioP2;P2;SDS_P1;SDS_P2;PMS_P1;PMS_P2;Temp;Humidity;BMP_temperature;BMP_pressure;BME280_temperature;BME280_humidity;BME280_pressure;Samples;Min_cycle;Max_cycle;Signal;HPM_P1;HPM_P2
2021/12/29 00:03:20;;;;;;;0.93;0.40;;;18.40;63.20;;;;;;10381736;28;20038;-62
2021/12/29 00:08:21;;;;;;;1.45;0.40;;;18.40;63.00;;;;;;10376600;28;20373;-62
2021/12/29 00:13:25;;;;;;;0.93;0.47;;;18.40;63.10;;;;;;10377045;28;20037;-62
2021/12/29 00:18:29;;;;;;;1.73;0.57;;;18.50;63.00;;;;;;10376509;28;20069;-62
2021/12/29 00:23:30;;;;;;;0.93;0.40;;;18.40;63.00;;;;;;10375036;28;20476;-62
2021/12/29 00:28:30;;;;;;;2.15;0.40;;;18.40;63.10;;;;;;10376339;28;20116;-61
2021/12/29 00:33:31;;;;;;;1.05;0.50;;;18.30;63.30;;;;;;10375987;28;20038;-61
2021/12/29 00:38:32;;;;;;;1.52;0.30;;;18.30;63.30;;;;;;10375439;28;20129;-61
2021/12/29 00:43:33;;;;;;;1.67;0.50;;;18.30;63.30;;;;;;10376132;28;20026;-62
2021/12/29 00:48:38;;;;;;;1.52;0.73;;;18.40;63.20;;;;;;10375722;28;20054;-62
2021/12/29 00:53:39;;;;;;;0.98;0.40;;;18.30;63.20;;;;;;10375500;28;20489;-61
2021/12/29 00:58:40;;;;;;;1.50;0.50;;;18.40;63.10;;;;;;10375290;28;20041;-61
2021/12/29 01:03:43;;;;;;;1.08;0.30;;;18.40;63.10;;;;;;10381342;28;20107;-62
2021/12/29 01:08:43;;;;;;;1.58;0.50;;;18.40;63.10;;;;;;10375315;28;20144;-62
2021/12/29 01:13:48;;;;;;;1.08;0.43;;;18.40;62.90;;;;;;10375241;28;20117;-62
2021/12/29 01:18:48;;;;;;;1.10;0.25;;;18.40;62.90;;;;;;10374428;28;20368;-62
2021/12/29 01:23:49;;;;;;;1.42;0.47;;;18.40;62.90;;;;;;10374403;28;20041;-62
2021/12/29 01:28:50;;;;;;;1.00;0.45;;;18.40;62.90;;;;;;10374826;28;20046;-62
2021/12/29 01:33:50;;;;;;;1.33;0.57;;;18.40;62.90;;;;;;10374257;28;20033;-62
2021/12/29 01:38:51;;;;;;;0.70;0.30;;;18.30;63.10;;;;;;10373840;28;20084;-62
2021/12/29 01:43:52;;;;;;;0.98;0.40;;;18.30;63.30;;;;;;10374287;28;20484;-62
2021/12/29 01:48:53;;;;;;;1.08;0.40;;;18.30;63.30;;;;;;10372077;28;20026;-62
2021/12/29 01:54:54;;;;;;;1.38;0.40;;;18.30;63.10;;;;;;10373498;28;20043;-62
2021/12/29 01:59:26;;;;;;;2.35;0.40;;;18.30;63.10;;;;;;10367696;28;20117;-61
2021/12/29 02:04:26;;;;;;;0.82;0.43;;;18.30;63.20;;;;;;10371212;28;20418;-62
2021/12/29 02:09:28;;;;;;;0.38;0.15;;;18.40;63.10;;;;;;10372588;28;20032;-62
2021/12/29 02:14:29;;;;;;;0.75;0.30;;;18.30;63.00;;;;;;10373106;28;20041;-62
2021/12/29 02:19:30;;;;;;;1.15;0.40;;;18.40;63.50;;;;;;10372163;28;20136;-62
2021/12/29 02:24:40;;;;;;;1.00;0.50;;;18.50;64.20;;;;;;10372223;28;20048;-62
2021/12/29 02:29:42;;;;;;;0.55;0.20;;;18.50;64.40;;;;;;10372182;28;20037;-62
2021/12/29 02:34:42;;;;;;;0.73;0.30;;;18.40;64.80;;;;;;10371810;28;20092;-61
2021/12/29 02:39:43;;;;;;;0.73;0.30;;;18.40;65.40;;;;;;10371461;28;20173;-62
2021/12/29 02:44:45;;;;;;;0.80;0.30;;;18.30;65.60;;;;;;10371543;28;20173;-61
2021/12/29 02:49:47;;;;;;;1.58;0.82;;;18.20;65.60;;;;;;10370450;28;20110;-61
2021/12/29 02:54:48;;;;;;;0.70;0.22;;;18.20;65.90;;;;;;10371480;28;20065;-62
2021/12/29 02:59:48;;;;;;;0.50;0.20;;;18.20;65.70;;;;;;10372211;28;20025;-61
2021/12/29 03:04:49;;;;;;;1.50;0.50;;;18.20;65.70;;;;;;10371090;28;20089;-61
2021/12/29 03:09:49;;;;;;;0.65;0.30;;;18.20;65.80;;;;;;10371327;28;20537;-61
2021/12/29 03:14:57;;;;;;;1.23;0.40;;;18.20;65.80;;;;;;10370628;28;20137;-61
2021/12/29 03:19:57;;;;;;;8.75;0.63;;;18.30;65.60;;;;;;10371118;28;20439;-61
2021/12/29 03:24:58;;;;;;;1.02;0.35;;;18.30;65.40;;;;;;10370852;28;20146;-62
2021/12/29 03:29:59;;;;;;;0.93;0.30;;;18.30;65.40;;;;;;10370947;28;20125;-62
2021/12/29 03:34:59;;;;;;;0.88;0.50;;;18.30;65.20;;;;;;10370637;28;20046;-62
2021/12/29 03:40:00;;;;;;;1.20;0.30;;;18.40;65.20;;;;;;10370447;28;20595;-62
2021/12/29 03:45:01;;;;;;;1.15;0.77;;;18.30;65.30;;;;;;10370366;28;20041;-62
2021/12/29 03:50:03;;;;;;;1.20;0.20;;;18.30;65.20;;;;;;10370600;28;20484;-62
2021/12/29 03:55:05;;;;;;;0.75;0.30;;;18.30;65.00;;;;;;10370112;28;20034;-62
2021/12/29 04:00:13;;;;;;;0.75;0.35;;;18.30;65.00;;;;;;10375594;28;20064;-61
2021/12/29 04:05:20;;;;;;;1.27;0.30;;;18.30;65.00;;;;;;10370055;28;20204;-62
2021/12/29 04:10:21;;;;;;;0.95;0.30;;;18.30;64.80;;;;;;10372483;28;20026;-62
2021/12/29 04:15:24;;;;;;;0.60;0.30;;;18.30;64.80;;;;;;10376934;28;20088;-62
2021/12/29 04:25:53;;;;;;;0.60;0.20;;;18.30;64.60;;;;;;10376602;28;20046;-61
2021/12/29 04:30:58;;;;;;;0.70;0.50;;;18.30;64.70;;;;;;10376677;28;20037;-62
2021/12/29 04:36:00;;;;;;;0.57;0.30;;;18.30;64.60;;;;;;10375243;28;20042;-62
2021/12/29 04:41:02;;;;;;;0.75;0.40;;;18.40;64.50;;;;;;10374846;28;20038;-62
2021/12/29 04:46:04;;;;;;;0.45;0.22;;;18.30;64.50;;;;;;10375859;28;20042;-62
2021/12/29 04:51:12;;;;;;;1.20;0.30;;;18.30;64.50;;;;;;10375602;28;20440;-62
2021/12/29 04:56:14;;;;;;;0.85;0.47;;;18.40;64.40;;;;;;10375218;28;20045;-61
2021/12/29 05:01:15;;;;;;;0.30;0.20;;;18.40;64.50;;;;;;10379989;28;20041;-62
2021/12/29 05:11:35;;;;;;;0.95;0.38;;;18.40;64.20;;;;;;10362497;28;20057;-62
2021/12/29 05:16:36;;;;;;;0.57;0.22;;;18.40;64.30;;;;;;10374309;28;20037;-63
2021/12/29 05:21:36;;;;;;;0.50;0.22;;;18.40;64.20;;;;;;10371568;28;20060;-61
2021/12/29 05:26:38;;;;;;;0.80;0.30;;;18.40;64.20;;;;;;10373401;28;20034;-62
2021/12/29 05:31:39;;;;;;;0.30;0.20;;;18.30;64.20;;;;;;10374339;28;20042;-62
2021/12/29 05:36:39;;;;;;;0.75;0.30;;;18.40;64.20;;;;;;10374442;28;20030;-62
2021/12/29 05:41:40;;;;;;;1.75;0.30;;;18.40;64.10;;;;;;10373359;28;20060;-62
2021/12/29 05:46:41;;;;;;;0.85;0.30;;;18.30;64.10;;;;;;10374381;28;20383;-62
2021/12/29 05:51:42;;;;;;;0.85;0.40;;;18.40;64.00;;;;;;10373373;28;20037;-61
2021/12/29 05:56:43;;;;;;;1.38;0.32;;;18.40;64.00;;;;;;10383030;28;20152;-62
2021/12/29 06:01:44;;;;;;;3.55;0.60;;;18.40;64.00;;;;;;10363162;28;20045;-63
2021/12/29 06:06:45;;;;;;;2.03;0.40;;;18.30;64.70;;;;;;10372933;28;20368;-62
2021/12/29 06:11:45;;;;;;;3.92;0.40;;;18.40;64.50;;;;;;10372900;28;20048;-61
2021/12/29 06:16:46;;;;;;;6.25;1.35;;;18.50;65.50;;;;;;10372258;28;20181;-61
2021/12/29 06:21:47;;;;;;;3.45;0.50;;;18.50;66.00;;;;;;10372602;28;20105;-63
2021/12/29 06:26:47;;;;;;;9.05;0.63;;;18.50;66.20;;;;;;10372268;28;20510;-61
2021/12/29 06:31:48;;;;;;;2.53;0.50;;;18.40;66.40;;;;;;10371331;28;20046;-63
2021/12/29 06:36:49;;;;;;;4.65;1.20;;;18.40;66.70;;;;;;10363497;28;20492;-64
2021/12/29 06:41:50;;;;;;;5.68;1.40;;;18.40;66.90;;;;;;10361772;28;20039;-61
2021/12/29 06:46:50;;;;;;;10.70;1.20;;;18.30;66.70;;;;;;10369622;28;20038;-61
2021/12/29 06:51:52;;;;;;;10.15;1.10;;;18.30;66.70;;;;;;10371888;28;20029;-62
2021/12/29 06:56:52;;;;;;;6.07;1.00;;;18.20;66.70;;;;;;10371444;28;20033;-62
2021/12/29 07:01:53;;;;;;;9.85;1.58;;;18.10;66.70;;;;;;10371754;28;20491;-61
2021/12/29 07:06:55;;;;;;;11.07;1.20;;;18.10;66.80;;;;;;10369237;28;20511;-61
2021/12/29 07:11:55;;;;;;;8.13;1.25;;;18.00;66.80;;;;;;10368703;28;20041;-60
2021/12/29 07:16:56;;;;;;;7.72;1.58;;;18.00;67.30;;;;;;10362125;28;20056;-60
2021/12/29 07:22:00;;;;;;;12.45;1.40;;;18.00;67.00;;;;;;10369165;28;20232;-61
2021/12/29 07:27:01;;;;;;;10.05;1.50;;;18.00;66.80;;;;;;10369945;28;20042;-61
2021/12/29 07:32:03;;;;;;;13.82;1.70;;;18.00;67.00;;;;;;10366555;28;20111;-60
2021/12/29 07:37:03;;;;;;;11.35;2.25;;;18.10;68.00;;;;;;10366953;28;20103;-60
2021/12/29 07:42:05;;;;;;;10.80;1.40;;;18.10;68.00;;;;;;10365152;28;20038;-60
2021/12/29 07:47:07;;;;;;;13.15;1.83;;;18.20;67.70;;;;;;10376140;28;20056;-59
2021/12/29 07:52:07;;;;;;;11.20;2.00;;;18.20;67.60;;;;;;10377540;28;20105;-61
2021/12/29 07:57:08;;;;;;;18.55;2.20;;;18.20;67.60;;;;;;10375372;28;20502;-60
2021/12/29 08:02:16;;;;;;;13.13;2.13;;;18.10;67.70;;;;;;10375357;28;20117;-60
2021/12/29 08:07:16;;;;;;;13.77;2.38;;;18.20;68.20;;;;;;10372813;28;20041;-61
2021/12/29 08:12:18;;;;;;;8.20;1.98;;;18.10;68.20;;;;;;10375773;28;20042;-61
2021/12/29 08:17:18;;;;;;;10.07;1.85;;;18.10;67.80;;;;;;10377226;28;20384;-61
2021/12/29 08:22:19;;;;;;;20.40;2.72;;;18.00;67.90;;;;;;10376000;28;20034;-59
2021/12/29 08:27:20;;;;;;;10.25;1.75;;;18.00;69.30;;;;;;10377151;28;20030;-60
2021/12/29 08:32:21;;;;;;;16.35;2.60;;;18.00;67.90;;;;;;10376592;28;20622;-60
2021/12/29 08:37:22;;;;;;;17.08;2.00;;;18.00;67.70;;;;;;10376816;28;20048;-60
2021/12/29 08:42:23;;;;;;;15.30;2.88;;;18.00;67.70;;;;;;10376097;28;20050;-60
2021/12/29 08:47:24;;;;;;;11.45;1.80;;;18.10;67.60;;;;;;10376399;28;20037;-60
2021/12/29 08:52:24;;;;;;;11.98;2.45;;;18.20;67.90;;;;;;10376198;28;20049;-60
2021/12/29 08:57:25;;;;;;;14.90;2.42;;;18.10;67.60;;;;;;10375017;28;20041;-61
2021/12/29 09:02:26;;;;;;;14.75;2.50;;;18.10;67.70;;;;;;10401985;28;20379;-60
2021/12/29 09:07:27;;;;;;;9.93;1.92;;;18.10;68.20;;;;;;10385582;28;20088;-61
2021/12/29 09:12:27;;;;;;;21.73;2.65;;;18.10;67.80;;;;;;10376097;28;20030;-60
2021/12/29 09:17:28;;;;;;;19.48;2.83;;;18.10;67.60;;;;;;10376297;28;20480;-59
2021/12/29 09:22:29;;;;;;;10.48;2.00;;;18.10;67.50;;;;;;10375654;28;20427;-60
2021/12/29 09:27:30;;;;;;;11.38;2.13;;;18.10;67.30;;;;;;10375691;28;20033;-60
2021/12/29 09:32:31;;;;;;;7.93;1.90;;;18.20;67.10;;;;;;10375464;28;20041;-60
2021/12/29 09:37:32;;;;;;;10.02;1.58;;;18.20;66.90;;;;;;10375341;28;20057;-60
2021/12/29 09:42:33;;;;;;;9.95;2.25;;;18.20;66.70;;;;;;10374322;28;20137;-59
2021/12/29 09:47:34;;;;;;;12.38;2.42;;;18.20;66.60;;;;;;10372595;28;20539;-60
2021/12/29 09:52:35;;;;;;;8.43;1.92;;;18.20;66.40;;;;;;10373943;28;20451;-60
2021/12/29 09:57:38;;;;;;;7.47;1.55;;;18.30;66.20;;;;;;10374276;28;20026;-60
2021/12/29 10:02:39;;;;;;;11.10;1.90;;;18.30;65.90;;;;;;10400787;28;20125;-60
2021/12/29 10:07:40;;;;;;;10.60;1.60;;;18.30;65.90;;;;;;10413644;28;20042;-60
2021/12/29 10:12:43;;;;;;;9.40;2.20;;;18.30;66.00;;;;;;10395384;28;20395;-60
2021/12/29 10:17:44;;;;;;;11.00;1.45;;;18.30;66.00;;;;;;10372936;28;20392;-60
2021/12/29 10:22:58;;;;;;;19.73;1.70;;;18.30;65.90;;;;;;10372281;28;20041;-59
2021/12/29 10:28:02;;;;;;;8.95;2.08;;;18.30;65.90;;;;;;10371343;28;20042;-60
2021/12/29 10:33:12;;;;;;;13.25;2.10;;;18.20;66.00;;;;;;10371962;28;20030;-60
2021/12/29 10:38:20;;;;;;;5.85;1.40;;;18.20;65.80;;;;;;10372539;28;20030;-60
2021/12/29 10:43:21;;;;;;;6.40;1.50;;;18.10;65.70;;;;;;10372239;28;20038;-60
2021/12/29 10:48:29;;;;;;;8.00;1.88;;;18.10;65.70;;;;;;10373342;28;20025;-60
2021/12/29 10:53:34;;;;;;;10.73;1.75;;;18.10;65.60;;;;;;10373013;28;20072;-60
2021/12/29 10:58:35;;;;;;;5.50;1.73;;;18.20;65.30;;;;;;10371909;28;20034;-59
2021/12/29 11:03:46;;;;;;;12.60;2.38;;;18.10;65.30;;;;;;10405380;28;20379;-60
2021/12/29 11:08:59;;;;;;;7.78;2.03;;;18.10;65.20;;;;;;10413224;28;20032;-60
2021/12/29 11:14:10;;;;;;;9.73;2.65;;;18.10;65.00;;;;;;10413212;28;20491;-59
2021/12/29 11:19:11;;;;;;;7.32;1.88;;;18.20;64.80;;;;;;10414011;28;20044;-59
2021/12/29 11:24:13;;;;;;;6.97;2.45;;;18.10;64.90;;;;;;10420265;28;20432;-59
2021/12/29 11:29:17;;;;;;;4.57;2.08;;;18.10;64.70;;;;;;10394336;28;20038;-60
2021/12/29 11:34:26;;;;;;;11.80;2.65;;;18.10;64.70;;;;;;10380508;28;20138;-60
2021/12/29 11:39:27;;;;;;;13.23;3.00;;;18.10;64.10;;;;;;10379333;28;20049;-59
2021/12/29 11:44:28;;;;;;;11.02;2.33;;;18.20;64.00;;;;;;10378875;28;20041;-60
2021/12/29 11:49:29;;;;;;;11.00;2.75;;;18.30;64.70;;;;;;10378481;28;20053;-61
2021/12/29 11:55:14;;;;;;;6.55;1.65;;;18.40;65.20;;;;;;10378561;28;20034;-61
2021/12/29 12:00:17;;;;;;;9.48;2.58;;;18.50;65.70;;;;;;10384793;28;20455;-61
2021/12/29 12:05:34;;;;;;;5.97;1.60;;;18.40;65.90;;;;;;10418791;28;20456;-60
2021/12/29 12:10:38;;;;;;;11.50;1.77;;;18.40;66.50;;;;;;10418628;28;20037;-61
2021/12/29 12:15:39;;;;;;;7.47;1.52;;;18.40;66.60;;;;;;10418633;28;20395;-61
2021/12/29 12:20:46;;;;;;;7.78;2.15;;;18.30;66.90;;;;;;10392911;28;20044;-59
2021/12/29 12:25:46;;;;;;;9.40;1.67;;;18.30;67.40;;;;;;10368155;28;20034;-61
2021/12/29 12:30:51;;;;;;;7.30;1.38;;;18.20;67.30;;;;;;10374702;28;20484;-61
2021/12/29 12:35:54;;;;;;;9.63;1.92;;;18.20;66.80;;;;;;10376134;28;20117;-59
2021/12/29 12:41:09;;;;;;;11.93;1.98;;;18.10;66.80;;;;;;10375284;28;20042;-60
2021/12/29 12:46:11;;;;;;;10.82;1.75;;;18.10;67.20;;;;;;10364391;28;20041;-60
2021/12/29 12:51:18;;;;;;;11.02;2.03;;;18.10;67.50;;;;;;10374649;28;20029;-59
2021/12/29 12:56:22;;;;;;;14.57;2.03;;;18.10;67.10;;;;;;10374600;28;20443;-59
2021/12/29 13:01:26;;;;;;;9.43;2.05;;;18.00;67.20;;;;;;10391860;28;20084;-59
2021/12/29 13:06:34;;;;;;;21.52;2.17;;;18.00;67.20;;;;;;10416569;28;20029;-59
2021/12/29 13:11:40;;;;;;;7.82;2.05;;;18.00;67.30;;;;;;10416193;28;20177;-58
2021/12/29 13:16:41;;;;;;;9.63;2.13;;;17.90;67.30;;;;;;10415867;28;20480;-60
2021/12/29 13:21:44;;;;;;;11.88;2.28;;;17.90;67.00;;;;;;10414787;28;20032;-59
2021/12/29 13:26:48;;;;;;;8.23;2.50;;;17.90;66.60;;;;;;10392674;28;20034;-58
2021/12/29 13:31:50;;;;;;;12.38;2.83;;;17.90;66.40;;;;;;10372740;28;20118;-59
2021/12/29 13:36:51;;;;;;;8.20;1.60;;;18.00;66.30;;;;;;10373513;28;20030;-59
2021/12/29 13:41:52;;;;;;;7.20;2.08;;;18.00;66.30;;;;;;10370765;28;20108;-59
2021/12/29 13:46:52;;;;;;;8.57;1.80;;;18.10;66.00;;;;;;10372466;28;20044;-59
2021/12/29 13:51:54;;;;;;;10.13;2.45;;;18.10;65.80;;;;;;10372832;28;20032;-59
2021/12/29 13:56:55;;;;;;;6.78;2.10;;;18.10;65.70;;;;;;10374524;28;20026;-59
2021/12/29 14:02:05;;;;;;;6.75;1.92;;;18.20;65.50;;;;;;10374530;28;20088;-59
2021/12/29 14:07:09;;;;;;;5.05;1.38;;;18.20;65.30;;;;;;10374247;28;20464;-60
2021/12/29 14:12:25;;;;;;;6.68;1.88;;;18.20;65.10;;;;;;10374283;28;20029;-59
2021/12/29 14:17:26;;;;;;;6.78;2.30;;;18.20;65.10;;;;;;10373777;28;20076;-60
2021/12/29 14:22:31;;;;;;;4.55;1.30;;;18.20;65.10;;;;;;10373676;28;20038;-59
2021/12/29 14:27:34;;;;;;;5.30;1.52;;;18.30;64.90;;;;;;10373598;28;20438;-59
2021/12/29 14:32:35;;;;;;;5.32;1.17;;;18.30;64.90;;;;;;10372606;28;20053;-58
2021/12/29 14:37:36;;;;;;;3.45;1.30;;;18.30;64.60;;;;;;10372018;28;20088;-59
2021/12/29 14:42:40;;;;;;;7.40;1.60;;;18.30;64.70;;;;;;10370235;28;20111;-60
2021/12/29 14:47:48;;;;;;;10.35;2.03;;;18.10;67.70;;;;;;10362019;28;20476;-60
2021/12/29 14:52:49;;;;;;;10.07;1.85;;;18.00;68.90;;;;;;10365681;28;20468;-60
2021/12/29 14:57:50;;;;;;;14.88;2.15;;;18.00;70.20;;;;;;10370149;28;20036;-60
2021/12/29 15:03:02;;;;;;;25.35;3.33;;;18.00;70.60;;;;;;10370881;28;20542;-60
2021/12/29 15:08:04;;;;;;;11.40;2.80;;;18.00;70.40;;;;;;10383659;28;20045;-60
2021/12/29 15:13:15;;;;;;;19.83;3.55;;;18.00;71.70;;;;;;10375763;28;20038;-59
2021/12/29 15:18:22;;;;;;;16.27;3.40;;;18.00;71.40;;;;;;10365203;28;20041;-59
2021/12/29 15:23:27;;;;;;;18.25;2.90;;;18.10;72.30;;;;;;10370882;28;20042;-59
2021/12/29 15:28:31;;;;;;;14.50;3.03;;;18.10;71.70;;;;;;10370076;28;20030;-60
2021/12/29 15:33:32;;;;;;;10.30;2.47;;;18.10;71.60;;;;;;10367811;28;20076;-58
2021/12/29 15:38:33;;;;;;;10.48;2.03;;;18.10;71.70;;;;;;10368127;28;20042;-60
2021/12/29 15:43:35;;;;;;;11.60;2.85;;;18.00;71.60;;;;;;10358026;28;20049;-59
2021/12/29 15:48:36;;;;;;;11.32;2.40;;;18.00;71.50;;;;;;10346350;28;20033;-59
2021/12/29 15:53:37;;;;;;;10.23;2.20;;;18.00;71.50;;;;;;10370545;28;20388;-60
2021/12/29 15:58:38;;;;;;;8.55;2.00;;;18.00;71.40;;;;;;10371078;28;20030;-59
2021/12/29 16:03:39;;;;;;;12.30;2.13;;;18.00;71.20;;;;;;10376420;28;20479;-61
2021/12/29 16:08:39;;;;;;;9.23;2.10;;;18.00;71.20;;;;;;10376399;28;20114;-60
2021/12/29 16:13:40;;;;;;;13.00;2.10;;;18.00;71.00;;;;;;10353268;28;20061;-60
2021/12/29 16:18:41;;;;;;;14.70;2.25;;;18.10;71.00;;;;;;10376359;28;20026;-60
2021/12/29 16:23:42;;;;;;;8.30;2.22;;;18.10;71.00;;;;;;10375681;28;20088;-61
2021/12/29 16:28:42;;;;;;;10.93;2.83;;;18.20;70.80;;;;;;10374551;28;20077;-59
2021/12/29 16:33:43;;;;;;;7.35;2.08;;;18.20;70.70;;;;;;10376071;28;20239;-60
2021/12/29 16:38:44;;;;;;;7.82;2.33;;;18.20;70.90;;;;;;10375967;28;20030;-60
2021/12/29 16:43:45;;;;;;;9.20;2.03;;;18.10;70.70;;;;;;10375783;28;20045;-60
2021/12/29 16:48:47;;;;;;;16.55;3.30;;;18.10;70.70;;;;;;10375792;28;20468;-59
2021/12/29 16:53:51;;;;;;;15.95;2.92;;;18.00;70.90;;;;;;10375063;28;20121;-62
2021/12/29 16:58:52;;;;;;;12.93;2.85;;;18.00;70.90;;;;;;10374573;28;20029;-59
2021/12/29 17:03:52;;;;;;;11.90;3.53;;;18.10;70.60;;;;;;10376116;28;20046;-59
2021/12/29 17:08:54;;;;;;;10.40;3.03;;;18.10;70.50;;;;;;10375235;28;20476;-59
2021/12/29 17:13:54;;;;;;;11.70;2.47;;;18.20;73.60;;;;;;10374281;28;20037;-59
2021/12/29 17:18:59;;;;;;;17.88;2.92;;;18.40;72.00;;;;;;10373070;28;20034;-58
2021/12/29 17:24:00;;;;;;;12.45;2.28;;;18.50;71.50;;;;;;10374743;28;20034;-60
2021/12/29 17:29:01;;;;;;;10.20;2.50;;;18.50;71.90;;;;;;10373342;28;20555;-60
2021/12/29 17:34:02;;;;;;;9.85;2.33;;;18.50;71.30;;;;;;10372400;28;20109;-59
2021/12/29 17:39:05;;;;;;;8.32;2.00;;;18.40;71.10;;;;;;10374061;28;20519;-61
2021/12/29 17:44:06;;;;;;;9.95;2.40;;;18.40;71.30;;;;;;10373836;28;20038;-60
2021/12/29 17:49:07;;;;;;;13.07;2.70;;;18.40;71.30;;;;;;10373948;28;20046;-60
2021/12/29 17:54:08;;;;;;;10.93;2.50;;;18.40;71.60;;;;;;10373732;28;20030;-60
2021/12/29 17:59:09;;;;;;;9.82;2.63;;;18.30;71.10;;;;;;10373613;28;20021;-60
2021/12/29 18:04:10;;;;;;;16.00;3.78;;;18.20;71.30;;;;;;10378824;28;20069;-61
2021/12/29 18:09:11;;;;;;;14.43;2.10;;;18.20;71.40;;;;;;10372838;28;20037;-60
2021/12/29 18:14:12;;;;;;;12.88;2.88;;;18.20;71.40;;;;;;10373145;28;20057;-59
2021/12/29 18:19:12;;;;;;;15.70;3.28;;;18.20;71.80;;;;;;10373981;28;20054;-59
2021/12/29 18:24:14;;;;;;;9.23;2.10;;;18.20;71.60;;;;;;10371300;28;20042;-60
2021/12/29 18:29:15;;;;;;;11.05;2.78;;;18.20;71.70;;;;;;10371857;28;20103;-59
2021/12/29 18:34:16;;;;;;;9.73;2.38;;;18.10;71.80;;;;;;10372025;28;20038;-60
2021/12/29 18:39:16;;;;;;;10.57;2.35;;;18.10;71.90;;;;;;10371544;28;20049;-60
2021/12/29 18:44:17;;;;;;;4.72;1.77;;;18.10;71.70;;;;;;10366273;28;20030;-60
2021/12/29 18:49:18;;;;;;;7.13;2.60;;;18.10;71.40;;;;;;10363318;28;20463;-60
2021/12/29 18:54:19;;;;;;;7.47;2.28;;;18.10;71.50;;;;;;10361464;28;20042;-59
2021/12/29 18:59:19;;;;;;;6.53;1.70;;;18.00;71.40;;;;;;10342473;28;20037;-60
2021/12/29 19:04:22;;;;;;;9.02;2.95;;;18.00;71.40;;;;;;10350120;28;20040;-60
2021/12/29 19:09:23;;;;;;;10.48;2.25;;;18.00;71.30;;;;;;10356546;28;20096;-59
2021/12/29 19:14:24;;;;;;;9.90;1.65;;;18.00;71.30;;;;;;10360730;28;20361;-60
2021/12/29 20:23:15;;;;;;;6.00;2.00;;;18.00;70.70;;;;;;10545854;27;20355;-50
2021/12/29 20:28:16;;;;;;;4.27;1.60;;;18.10;70.60;;;;;;10519598;28;20472;-52
2021/12/29 20:33:22;;;;;;;6.03;1.70;;;18.00;70.70;;;;;;10530135;28;20016;-53
2021/12/29 20:38:23;;;;;;;5.93;1.80;;;18.00;70.70;;;;;;10520677;28;20028;-53
2021/12/29 20:43:24;;;;;;;4.10;1.65;;;17.90;70.60;;;;;;10492568;28;20379;-54
2021/12/29 20:48:25;;;;;;;5.65;1.90;;;17.90;70.60;;;;;;10487591;28;20029;-53
2021/12/29 20:53:26;;;;;;;5.95;1.98;;;17.90;70.50;;;;;;10500120;28;20021;-51
2021/12/29 20:58:27;;;;;;;4.50;1.60;;;18.00;70.30;;;;;;10488818;28;20028;-52
2021/12/29 21:03:27;;;;;;;4.25;1.50;;;18.00;70.20;;;;;;10494307;28;20033;-53
2021/12/29 21:08:29;;;;;;;4.25;1.33;;;18.00;70.00;;;;;;10487449;28;20082;-51
2021/12/29 21:13:30;;;;;;;4.47;1.45;;;18.10;69.90;;;;;;10488916;28;20020;-53
2021/12/29 21:18:32;;;;;;;5.70;1.75;;;18.00;69.80;;;;;;10489355;28;20545;-53
2021/12/29 21:23:33;;;;;;;4.28;1.75;;;18.10;69.70;;;;;;10543112;28;20040;-53
2021/12/29 21:28:34;;;;;;;3.17;1.40;;;18.10;69.60;;;;;;10552297;28;20379;-53
2021/12/29 21:33:36;;;;;;;4.05;1.45;;;18.10;69.40;;;;;;10548745;28;20036;-53
2021/12/29 21:38:37;;;;;;;6.47;1.85;;;18.10;69.40;;;;;;10525968;28;20063;-54
2021/12/29 21:43:37;;;;;;;4.90;1.77;;;18.10;69.40;;;;;;10493187;28;20444;-53
2021/12/29 21:48:39;;;;;;;2.85;1.25;;;18.10;69.20;;;;;;10482906;28;20500;-54
2021/12/29 21:53:40;;;;;;;4.65;1.50;;;18.10;69.10;;;;;;10514543;28;20024;-52
2021/12/29 21:58:41;;;;;;;4.63;0.90;;;18.10;69.10;;;;;;10479598;28;20610;-53
2021/12/29 22:03:42;;;;;;;3.45;1.38;;;18.20;69.00;;;;;;10536139;28;20122;-53
2021/12/29 22:08:42;;;;;;;4.00;1.17;;;18.10;68.90;;;;;;10512650;28;20079;-53
2021/12/29 22:13:43;;;;;;;2.30;1.05;;;18.10;69.00;;;;;;10482222;28;20025;-53
2021/12/29 22:18:44;;;;;;;3.10;1.10;;;18.10;69.00;;;;;;10482217;28;20053;-53
2021/12/29 22:23:46;;;;;;;4.93;1.48;;;18.10;68.90;;;;;;10496112;28;20419;-54
2021/12/29 22:28:47;;;;;;;2.42;1.02;;;18.10;68.80;;;;;;10518514;28;20028;-52
2021/12/29 22:33:51;;;;;;;3.25;1.05;;;18.10;68.70;;;;;;10485935;28;20025;-53
2021/12/29 22:38:52;;;;;;;4.05;1.00;;;18.10;68.70;;;;;;10481700;28;20399;-51
2021/12/29 22:43:52;;;;;;;2.45;0.95;;;18.20;68.70;;;;;;10498414;28;20031;-54
2021/12/29 22:48:53;;;;;;;3.05;1.08;;;18.10;68.60;;;;;;10499199;28;20081;-53
2021/12/29 22:53:54;;;;;;;5.90;1.40;;;18.10;68.60;;;;;;10499682;28;20039;-54
2021/12/29 22:58:55;;;;;;;2.78;1.00;;;18.20;68.60;;;;;;10521558;28;20117;-54
2021/12/29 23:03:57;;;;;;;6.40;1.38;;;18.10;68.50;;;;;;10502645;28;20033;-53
2021/12/29 23:09:01;;;;;;;3.33;1.25;;;18.10;68.40;;;;;;10498130;28;20480;-54
2021/12/29 23:14:06;;;;;;;2.53;1.40;;;18.10;68.50;;;;;;10481041;28;20101;-53
2021/12/29 23:19:13;;;;;;;3.55;1.40;;;18.10;68.30;;;;;;10511129;28;20131;-53
2021/12/29 23:24:23;;;;;;;3.35;1.23;;;18.20;68.40;;;;;;10480495;28;20107;-53
2021/12/29 23:29:26;;;;;;;3.83;1.15;;;18.10;68.30;;;;;;10523555;28;20060;-52
2021/12/29 23:34:27;;;;;;;3.00;1.15;;;18.20;68.30;;;;;;10479436;28;20624;-52
2021/12/29 23:39:28;;;;;;;1.52;0.82;;;18.10;68.30;;;;;;10512666;28;20042;-54
2021/12/29 23:44:28;;;;;;;4.15;1.23;;;18.10;68.40;;;;;;10525281;28;20056;-50
2021/12/29 23:49:29;;;;;;;3.08;1.00;;;18.10;68.30;;;;;;10511105;28;20370;-50
2021/12/29 23:54:30;;;;;;;1.67;0.90;;;18.10;68.40;;;;;;10523428;28;20060;-52
2021/12/29 23:59:31;;;;;;;2.13;0.90;;;18.10;68.30;;;;;;10522149;28;20032;-51
